createdAt,value
2023-01-24T00:00:12.148Z,64.10
2023-01-24T00:02:58.785Z,59.70
2023-01-24T00:05:25.493Z,66.70
2023-01-24T00:07:51.966Z,62.60
2023-01-24T00:10:18.704Z,46.40
2023-01-24T00:12:45.156Z,60.80
2023-01-24T00:15:11.744Z,69.60
2023-01-24T00:17:38.356Z,61.90
2023-01-24T00:20:05.939Z,64.70
2023-01-24T00:22:32.616Z,56.70
2023-01-24T00:24:59.128Z,60.80
2023-01-24T00:27:25.623Z,59.00
2023-01-24T00:29:52.098Z,53.70
2023-01-24T00:32:18.765Z,63.10
2023-01-24T00:34:45.291Z,64.00
2023-01-24T00:37:11.834Z,63.10
2023-01-24T00:39:38.365Z,67.60
2023-01-24T00:42:04.867Z,62.60
2023-01-24T00:44:31.332Z,60.60
2023-01-24T00:46:57.843Z,63.00
2023-01-24T00:49:24.311Z,56.70
2023-01-24T00:51:50.908Z,57.60
2023-01-24T00:54:17.619Z,62.70
2023-01-24T00:57:25.043Z,59.50
2023-01-24T00:59:51.750Z,47.10
2023-01-24T01:02:18.588Z,50.90
2023-01-24T01:04:45.356Z,61.70
2023-01-24T01:07:11.992Z,54.60
2023-01-24T01:09:38.794Z,60.10
2023-01-24T01:12:05.737Z,64.20
2023-01-24T01:14:32.267Z,47.30
2023-01-24T01:16:58.746Z,57.60
2023-01-24T01:19:25.180Z,67.70
2023-01-24T01:21:51.749Z,68.10
2023-01-24T01:24:18.409Z,53.70
2023-01-24T01:26:46.088Z,65.00
2023-01-24T01:29:12.745Z,57.50
2023-01-24T01:31:39.454Z,55.70
2023-01-24T01:34:06.125Z,65.70
2023-01-24T01:36:32.675Z,68.30
2023-01-24T01:38:59.643Z,54.10
2023-01-24T01:41:27.265Z,54.50
2023-01-24T01:44:12.640Z,64.50
2023-01-24T01:46:48.390Z,67.40
2023-01-24T01:49:22.264Z,67.10
2023-01-24T01:51:51.274Z,61.40
2023-01-24T01:54:21.385Z,45.30
2023-01-24T01:56:57.406Z,60.50
2023-01-24T01:59:32.364Z,60.60
2023-01-24T02:01:59.044Z,54.10
2023-01-24T02:04:33.029Z,58.20
2023-01-24T02:07:06.163Z,58.80
2023-01-24T02:09:44.355Z,59.20
2023-01-24T02:12:38.924Z,55.60
2023-01-24T02:15:29.262Z,55.00
2023-01-24T02:17:55.926Z,61.20
2023-01-24T02:20:53.147Z,53.50
2023-01-24T02:23:52.573Z,67.10
2023-01-24T02:26:23.710Z,62.50
2023-01-24T02:29:11.457Z,56.60
2023-01-24T02:32:05.932Z,64.50
2023-01-24T02:34:32.513Z,62.40
2023-01-24T02:37:12.309Z,55.80
2023-01-24T02:39:58.899Z,61.10
2023-01-24T02:42:30.565Z,64.80
2023-01-24T02:45:10.550Z,60.60
2023-01-24T02:47:41.069Z,60.40
2023-01-24T02:50:09.894Z,61.80
2023-01-24T02:52:55.326Z,53.40
2023-01-24T02:55:22.605Z,51.10
2023-01-24T02:58:07.706Z,55.00
2023-01-24T03:00:42.139Z,55.60
2023-01-24T03:03:10.714Z,69.40
2023-01-24T03:05:46.991Z,52.70
2023-01-24T03:08:15.901Z,67.00
2023-01-24T03:10:42.527Z,63.60
2023-01-24T03:13:28.101Z,62.50
2023-01-24T03:16:13.262Z,53.80
2023-01-24T03:18:58.629Z,60.50
2023-01-24T03:21:44.093Z,59.00
2023-01-24T03:24:29.724Z,66.00
2023-01-24T03:27:15.045Z,60.80
2023-01-24T03:30:00.476Z,69.70
2023-01-24T03:32:47.137Z,64.30
2023-01-24T03:35:13.656Z,63.40
2023-01-24T03:37:59.377Z,64.80
2023-01-24T03:40:27.581Z,67.70
2023-01-24T03:42:54.243Z,65.10
2023-01-24T03:45:28.464Z,65.10
2023-01-24T03:48:01.146Z,67.20
2023-01-24T03:50:54.062Z,63.00
2023-01-24T03:53:23.570Z,69.70
2023-01-24T03:55:54.865Z,74.50
2023-01-24T03:58:22.258Z,59.30
2023-01-24T04:00:49.756Z,65.50
2023-01-24T04:03:27.427Z,59.10
2023-01-24T04:05:54.492Z,66.00
2023-01-24T04:08:21.005Z,78.00
2023-01-24T04:10:48.184Z,48.20
2023-01-24T04:13:15.310Z,50.90
2023-01-24T04:15:42.090Z,74.30
2023-01-24T04:18:37.696Z,63.20
2023-01-24T04:21:04.617Z,78.20
2023-01-24T04:23:31.470Z,66.90
2023-01-24T04:25:59.870Z,72.80
2023-01-24T04:28:27.561Z,74.80
2023-01-24T04:30:59.055Z,78.40
2023-01-24T04:33:46.000Z,80.10
2023-01-24T04:36:13.447Z,70.90
2023-01-24T04:38:40.034Z,67.00
2023-01-24T04:41:14.693Z,84.00
2023-01-24T04:43:42.276Z,61.40
2023-01-24T04:46:08.790Z,52.70
2023-01-24T04:48:55.777Z,66.50
2023-01-24T04:51:28.833Z,78.00
2023-01-24T04:53:56.218Z,72.20
2023-01-24T04:56:25.157Z,65.60
2023-01-24T04:58:52.826Z,63.90
2023-01-24T05:01:19.462Z,67.70
2023-01-24T05:03:59.418Z,88.70
2023-01-24T05:06:26.823Z,74.20
2023-01-24T05:08:54.689Z,67.00
2023-01-24T05:11:22.828Z,70.90
2023-01-24T05:13:51.672Z,65.70
2023-01-24T05:16:18.455Z,65.20
2023-01-24T05:18:48.253Z,82.80
2023-01-24T05:21:16.551Z,73.70
2023-01-24T05:23:43.874Z,61.10
2023-01-24T05:26:10.534Z,71.90
2023-01-24T05:28:37.106Z,79.70
2023-01-24T05:31:07.686Z,71.40
2023-01-24T05:33:35.428Z,81.90
2023-01-24T05:36:05.202Z,66.00
2023-01-24T05:38:33.799Z,80.10
2023-01-24T05:41:02.175Z,73.20
2023-01-24T05:43:29.457Z,67.30
2023-01-24T05:46:00.544Z,66.90
2023-01-24T05:48:28.001Z,77.70
2023-01-24T05:51:06.660Z,67.60
2023-01-24T05:53:36.197Z,88.00
2023-01-24T05:56:06.923Z,70.00
2023-01-24T05:58:36.716Z,73.90
2023-01-24T06:01:19.084Z,69.60
2023-01-24T06:03:48.667Z,76.20
2023-01-24T06:06:20.159Z,81.80
2023-01-24T06:08:46.956Z,74.50
2023-01-24T06:11:19.213Z,68.70
2023-01-24T06:13:46.175Z,74.00
2023-01-24T06:16:21.134Z,65.00
2023-01-24T06:18:49.021Z,70.50
2023-01-24T06:21:30.089Z,68.40
2023-01-24T06:23:56.964Z,71.70
2023-01-24T06:26:24.380Z,78.50
2023-01-24T06:28:52.979Z,71.10
2023-01-24T06:31:40.755Z,65.20
2023-01-24T06:34:39.556Z,57.50
2023-01-24T06:37:24.426Z,67.20
2023-01-24T06:39:52.786Z,65.90
2023-01-24T06:42:21.224Z,77.70
2023-01-24T06:44:48.230Z,72.50
2023-01-24T06:47:15.110Z,52.60
2023-01-24T06:49:44.700Z,61.70
2023-01-24T06:52:14.542Z,72.60
2023-01-24T06:54:42.235Z,68.00
2023-01-24T06:57:09.994Z,70.20
2023-01-24T06:59:39.320Z,74.90
2023-01-24T07:02:06.633Z,74.90
2023-01-24T07:04:33.166Z,71.80
2023-01-24T07:06:59.678Z,61.50
2023-01-24T07:09:26.291Z,69.60
2023-01-24T07:11:57.112Z,69.00
2023-01-24T07:14:23.800Z,72.70
2023-01-24T07:16:56.064Z,82.50
2023-01-24T07:19:24.393Z,72.20
2023-01-24T07:21:54.349Z,64.70
2023-01-24T07:24:22.485Z,68.70
2023-01-24T07:26:51.384Z,83.50
2023-01-24T07:29:21.241Z,84.00
2023-01-24T07:31:48.778Z,65.50
2023-01-24T07:34:18.210Z,69.10
2023-01-24T07:36:45.859Z,76.20
2023-01-24T07:39:12.480Z,79.10
2023-01-24T07:41:46.063Z,76.10
2023-01-24T07:44:13.866Z,73.60
2023-01-24T07:46:40.686Z,76.50
2023-01-24T07:49:07.212Z,80.90
2023-01-24T07:51:33.751Z,69.60
2023-01-24T07:54:00.178Z,70.80
2023-01-24T07:56:26.843Z,78.90
2023-01-24T07:58:53.719Z,83.40
2023-01-24T08:01:21.569Z,61.20
2023-01-24T08:03:48.374Z,79.80
2023-01-24T08:06:14.765Z,76.80
2023-01-24T08:08:41.223Z,90.90
2023-01-24T08:11:11.266Z,96.00
2023-01-24T08:13:37.895Z,379.10
2023-01-24T08:16:05.211Z,118.20
2023-01-24T08:18:32.498Z,85.70
2023-01-24T08:20:59.294Z,85.00
2023-01-24T08:23:26.135Z,67.50
2023-01-24T08:25:52.701Z,73.50
2023-01-24T08:28:19.241Z,77.00
2023-01-24T08:30:45.709Z,72.50
2023-01-24T08:33:17.798Z,82.10
2023-01-24T08:35:45.485Z,81.90
2023-01-24T08:38:13.158Z,74.00
2023-01-24T08:40:49.061Z,72.40
2023-01-24T08:43:16.768Z,82.00
2023-01-24T08:45:43.531Z,61.30
2023-01-24T08:48:10.157Z,88.50
2023-01-24T08:50:36.657Z,81.90
2023-01-24T08:53:03.754Z,77.50
2023-01-24T08:55:30.223Z,76.90
2023-01-24T08:58:02.072Z,68.30
2023-01-24T09:00:29.348Z,78.50
2023-01-24T09:02:58.959Z,84.40
2023-01-24T09:05:26.129Z,77.70
2023-01-24T09:07:52.908Z,77.90
2023-01-24T09:10:19.525Z,84.80
2023-01-24T09:12:46.035Z,75.20
2023-01-24T09:15:12.680Z,71.30
2023-01-24T09:17:40.673Z,85.20
2023-01-24T09:20:08.375Z,79.70
2023-01-24T09:22:34.912Z,68.60
2023-01-24T09:25:01.485Z,81.10
2023-01-24T09:27:27.945Z,84.80
2023-01-24T09:29:54.477Z,91.30
2023-01-24T09:32:21.469Z,63.00
2023-01-24T09:34:48.843Z,75.50
2023-01-24T09:37:19.617Z,73.40
2023-01-24T09:39:46.296Z,69.40
2023-01-24T09:43:05.907Z,77.10
2023-01-24T09:45:50.104Z,54.40
2023-01-24T09:48:16.630Z,73.70
2023-01-24T09:50:55.502Z,73.70
2023-01-24T09:53:27.109Z,63.50
2023-01-24T09:55:53.875Z,71.80
2023-01-24T09:58:34.896Z,78.50
2023-01-24T10:01:09.372Z,71.30
2023-01-24T10:03:36.524Z,71.70
2023-01-24T10:06:16.443Z,74.30
2023-01-24T10:09:18.621Z,84.30
2023-01-24T10:11:57.288Z,82.90
2023-01-24T10:14:59.509Z,89.20
2023-01-24T10:18:05.298Z,74.60
2023-01-24T10:20:53.734Z,66.60
2023-01-24T10:23:30.662Z,75.10
2023-01-24T10:26:00.296Z,71.30
2023-01-24T10:28:39.076Z,66.90
2023-01-24T10:31:17.256Z,70.80
2023-01-24T10:33:58.068Z,66.40
2023-01-24T10:36:46.515Z,59.50
2023-01-24T10:39:13.524Z,64.00
2023-01-24T10:41:39.996Z,62.80
2023-01-24T10:44:16.608Z,71.50
2023-01-24T10:47:00.488Z,60.60
2023-01-24T10:49:41.523Z,68.60
2023-01-24T10:52:21.610Z,62.80
2023-01-24T10:55:02.084Z,76.20
2023-01-24T10:57:51.773Z,70.00
2023-01-24T11:00:28.289Z,75.50
2023-01-24T11:03:00.198Z,63.40
2023-01-24T11:06:03.040Z,66.20
2023-01-24T11:08:37.177Z,59.80
2023-01-24T11:11:30.432Z,65.20
2023-01-24T11:13:59.125Z,67.30
2023-01-24T11:16:49.181Z,73.70
2023-01-24T11:19:38.869Z,61.00
2023-01-24T11:22:25.373Z,65.10
2023-01-24T11:24:59.465Z,67.20
2023-01-24T11:27:27.076Z,64.10
2023-01-24T11:30:20.380Z,68.90
2023-01-24T11:32:52.069Z,68.20
2023-01-24T11:35:27.023Z,76.80
2023-01-24T11:38:26.227Z,61.90
2023-01-24T11:41:06.056Z,90.40
2023-01-24T11:43:51.185Z,107.90
2023-01-24T11:46:52.201Z,105.10
2023-01-24T11:49:43.462Z,95.90
2023-01-24T11:52:35.288Z,86.50
2023-01-24T11:55:18.375Z,101.10
2023-01-24T11:58:36.505Z,101.60
2023-01-24T12:01:43.373Z,97.00
2023-01-24T12:04:22.434Z,95.00
2023-01-24T12:07:01.471Z,70.40
2023-01-24T12:09:33.661Z,63.50
2023-01-24T12:12:06.155Z,73.60
2023-01-24T12:14:57.106Z,80.50
2023-01-24T12:17:26.105Z,68.60
2023-01-24T12:20:36.204Z,74.70
2023-01-24T12:23:20.607Z,62.40
2023-01-24T12:25:47.257Z,76.20
2023-01-24T12:28:44.301Z,63.70
2023-01-24T12:31:15.953Z,67.50
2023-01-24T12:34:09.787Z,57.40
2023-01-24T12:36:44.567Z,62.90
2023-01-24T12:39:21.671Z,79.40
2023-01-24T12:41:56.719Z,77.70
2023-01-24T12:44:35.365Z,64.60
2023-01-24T12:47:26.531Z,72.70
2023-01-24T12:50:08.161Z,62.20
2023-01-24T12:56:05.575Z,86.20
2023-01-24T12:58:36.994Z,96.80
2023-01-24T13:01:29.855Z,99.10
2023-01-24T13:04:09.610Z,96.20
2023-01-24T13:06:57.794Z,77.50
2023-01-24T13:09:30.158Z,95.60
2023-01-24T13:11:56.579Z,93.10
2023-01-24T13:14:49.981Z,82.40
2023-01-24T13:17:35.036Z,95.20
2023-01-24T13:20:35.641Z,80.30
2023-01-24T13:23:14.195Z,85.70
2023-01-24T13:26:07.555Z,98.70
2023-01-24T13:29:10.292Z,79.10
2023-01-24T13:32:07.227Z,88.70
2023-01-24T13:34:37.380Z,89.70
2023-01-24T13:37:04.025Z,85.50
2023-01-24T13:39:36.536Z,95.50
2023-01-24T13:42:18.099Z,94.90
2023-01-24T13:44:44.643Z,92.50
2023-01-24T13:47:16.006Z,96.00
2023-01-24T13:49:54.740Z,87.90
2023-01-24T13:52:34.136Z,92.10
2023-01-24T13:55:01.763Z,92.60
2023-01-24T13:57:30.081Z,97.80
2023-01-24T14:00:25.077Z,91.50
2023-01-24T14:02:52.411Z,104.10
2023-01-24T14:05:37.560Z,85.70
2023-01-24T14:08:20.074Z,87.90
2023-01-24T14:10:53.705Z,100.30
2023-01-24T14:13:48.248Z,94.80
2023-01-24T14:16:24.011Z,88.10
2023-01-24T14:18:54.105Z,97.00
2023-01-24T14:21:24.267Z,92.90
2023-01-24T14:23:55.631Z,90.30
2023-01-24T14:26:25.481Z,97.00
2023-01-24T14:28:55.715Z,91.60
2023-01-24T14:31:31.557Z,92.40
2023-01-24T14:34:19.073Z,101.90
2023-01-24T14:36:46.796Z,84.90
2023-01-24T14:39:26.198Z,83.20
2023-01-24T14:41:59.558Z,81.60
2023-01-24T14:44:35.870Z,94.80
2023-01-24T14:47:05.614Z,118.50
2023-01-24T14:49:42.485Z,151.70
2023-01-24T14:52:22.673Z,134.00
2023-01-24T14:55:01.357Z,117.40
2023-01-24T14:57:32.809Z,172.80
2023-01-24T15:00:13.343Z,142.30
2023-01-24T15:02:57.571Z,129.80
2023-01-24T15:05:37.577Z,143.60
2023-01-24T15:08:07.174Z,117.80
2023-01-24T15:10:36.624Z,238.30
2023-01-24T15:13:25.118Z,268.60
2023-01-24T15:15:52.757Z,179.00
2023-01-24T15:18:50.976Z,143.40
2023-01-24T15:21:32.492Z,122.40
2023-01-24T15:23:59.188Z,118.70
2023-01-24T15:26:28.839Z,124.20
2023-01-24T15:28:55.327Z,156.10
2023-01-24T15:31:27.002Z,137.00
2023-01-24T15:34:00.603Z,123.80
2023-01-24T15:36:29.221Z,123.70
2023-01-24T15:38:57.244Z,121.50
2023-01-24T15:42:03.922Z,118.60
2023-01-24T15:44:30.485Z,116.20
2023-01-24T15:47:16.618Z,111.80
2023-01-24T15:50:00.824Z,86.30
2023-01-24T15:52:27.696Z,108.70
2023-01-24T15:54:59.456Z,108.90
2023-01-24T15:57:37.582Z,100.60
2023-01-24T16:00:13.351Z,113.60
2023-01-24T16:02:39.846Z,102.20
2023-01-24T16:05:20.077Z,105.70
2023-01-24T16:07:47.080Z,110.00
2023-01-24T16:10:16.822Z,110.70
2023-01-24T16:12:43.712Z,91.90
2023-01-24T16:15:15.740Z,106.00
2023-01-24T16:17:42.306Z,101.70
2023-01-24T16:20:27.671Z,96.20
2023-01-24T16:22:54.915Z,109.30
2023-01-24T16:25:22.395Z,101.10
2023-01-24T16:27:49.230Z,108.60
2023-01-24T16:30:18.733Z,102.40
2023-01-24T16:32:45.586Z,109.20
2023-01-24T16:35:12.259Z,91.80
2023-01-24T16:37:38.899Z,108.20
2023-01-24T16:40:09.249Z,107.70
2023-01-24T16:42:42.618Z,100.20
2023-01-24T16:45:24.429Z,93.00
2023-01-24T16:47:51.100Z,107.40
2023-01-24T16:50:17.971Z,90.90
2023-01-24T16:52:44.569Z,91.70
2023-01-24T16:55:11.128Z,91.50
2023-01-24T16:57:37.806Z,82.40
2023-01-24T17:00:07.913Z,103.30
2023-01-24T17:02:34.715Z,96.60
2023-01-24T17:05:01.280Z,82.60
2023-01-24T17:07:30.051Z,95.10
2023-01-24T17:09:57.345Z,110.40
2023-01-24T17:12:23.898Z,86.40
2023-01-24T17:14:50.343Z,111.30
2023-01-24T17:17:17.187Z,96.40
2023-01-24T17:19:43.747Z,96.30
2023-01-24T17:22:10.206Z,105.40
2023-01-24T17:24:36.748Z,103.00
2023-01-24T17:27:03.358Z,98.10
2023-01-24T17:29:29.839Z,95.80
2023-01-24T17:31:57.077Z,86.00
2023-01-24T17:34:24.086Z,98.00
2023-01-24T17:36:51.747Z,92.30
2023-01-24T17:39:18.592Z,102.20
2023-01-24T17:41:45.011Z,100.80
2023-01-24T17:44:12.816Z,107.70
2023-01-24T17:46:39.492Z,116.40
2023-01-24T17:49:06.099Z,110.90
2023-01-24T17:51:36.346Z,117.70
2023-01-24T17:54:06.087Z,107.80
2023-01-24T17:56:32.632Z,114.10
2023-01-24T17:58:59.592Z,99.80
2023-01-24T18:01:26.271Z,103.40
2023-01-24T18:03:52.982Z,113.50
2023-01-24T18:06:19.754Z,90.80
2023-01-24T18:08:47.088Z,82.80
2023-01-24T18:11:15.655Z,98.20
2023-01-24T18:13:42.313Z,95.70
2023-01-24T18:16:15.151Z,101.60
2023-01-24T18:18:42.123Z,94.00
2023-01-24T18:21:22.607Z,90.30
2023-01-24T18:23:58.166Z,79.50
2023-01-24T18:26:26.595Z,83.40
2023-01-24T18:28:53.125Z,78.80
2023-01-24T18:31:19.893Z,76.80
2023-01-24T18:33:46.673Z,97.20
2023-01-24T18:36:18.184Z,85.60
2023-01-24T18:38:45.940Z,85.10
2023-01-24T18:41:13.999Z,86.20
2023-01-24T18:43:40.465Z,92.80
2023-01-24T18:46:09.832Z,99.80
2023-01-24T18:48:38.289Z,86.10
2023-01-24T18:51:19.086Z,88.30
2023-01-24T18:53:47.186Z,91.00
2023-01-24T18:56:15.979Z,95.50
2023-01-24T18:58:42.649Z,79.40
2023-01-24T19:01:21.988Z,75.10
2023-01-24T19:03:49.261Z,101.10
2023-01-24T19:06:16.231Z,97.90
2023-01-24T19:09:00.618Z,96.00
2023-01-24T19:11:29.521Z,92.70
2023-01-24T19:13:56.000Z,98.50
2023-01-24T19:16:23.089Z,99.00
2023-01-24T19:18:51.018Z,86.00
2023-01-24T19:21:17.978Z,89.30
2023-01-24T19:23:47.007Z,98.10
2023-01-24T19:26:14.863Z,97.30
2023-01-24T19:28:41.535Z,102.20
2023-01-24T19:31:08.125Z,114.60
2023-01-24T19:33:34.709Z,120.10
2023-01-24T19:36:09.155Z,105.80
2023-01-24T19:38:35.633Z,105.80
2023-01-24T19:41:06.722Z,104.70
2023-01-24T19:43:34.585Z,109.00
2023-01-24T19:46:10.564Z,130.60
2023-01-24T19:48:38.117Z,109.90
2023-01-24T19:51:06.599Z,108.00
2023-01-24T19:53:33.061Z,109.00
2023-01-24T19:56:00.714Z,90.70
2023-01-24T19:58:27.899Z,86.90
2023-01-24T20:00:54.631Z,90.00
2023-01-24T20:03:21.338Z,91.50
2023-01-24T20:05:47.833Z,108.50
2023-01-24T20:08:14.484Z,97.90
2023-01-24T20:10:40.929Z,84.10
2023-01-24T20:13:09.890Z,97.40
2023-01-24T20:15:37.014Z,91.00
2023-01-24T20:18:04.619Z,95.30
2023-01-24T20:20:31.211Z,91.30
2023-01-24T20:22:58.783Z,96.00
2023-01-24T20:25:25.821Z,105.20
2023-01-24T20:27:52.723Z,101.50
2023-01-24T20:30:20.599Z,95.10
2023-01-24T20:32:47.089Z,93.40
2023-01-24T20:35:13.914Z,101.80
2023-01-24T20:37:40.363Z,109.00
2023-01-24T20:40:09.374Z,113.20
2023-01-24T20:42:41.144Z,94.40
2023-01-24T20:45:10.048Z,104.60
2023-01-24T20:47:37.196Z,83.70
2023-01-24T20:50:04.997Z,98.30
2023-01-24T20:52:31.614Z,82.00
2023-01-24T20:54:58.105Z,89.90
2023-01-24T20:57:24.757Z,85.20
2023-01-24T20:59:51.283Z,79.30
2023-01-24T21:02:17.886Z,84.30
2023-01-24T21:04:45.028Z,82.80
2023-01-24T21:07:11.433Z,89.80
2023-01-24T21:09:38.191Z,83.70
2023-01-24T21:12:05.053Z,75.80
2023-01-24T21:14:31.633Z,86.30
2023-01-24T21:16:58.043Z,83.10
2023-01-24T21:19:26.138Z,80.80
2023-01-24T21:21:52.662Z,81.20
2023-01-24T21:24:32.175Z,101.00
2023-01-24T21:27:00.894Z,75.60
2023-01-24T21:29:29.256Z,79.10
2023-01-24T21:31:55.905Z,91.90
2023-01-24T21:34:22.783Z,83.10
2023-01-24T21:36:49.344Z,88.90
2023-01-24T21:39:15.890Z,86.60
2023-01-24T21:41:54.499Z,82.60
2023-01-24T21:44:31.792Z,93.70
2023-01-24T21:46:59.744Z,91.10
2023-01-24T21:49:26.304Z,89.80
2023-01-24T21:52:01.656Z,89.90
2023-01-24T21:54:33.641Z,96.80
2023-01-24T21:57:32.888Z,98.10
2023-01-24T22:00:03.890Z,79.80
2023-01-24T22:02:38.581Z,99.40
2023-01-24T22:05:06.162Z,98.00
2023-01-24T22:07:33.096Z,90.70
2023-01-24T22:09:59.979Z,97.50
2023-01-24T22:12:27.735Z,92.90
2023-01-24T22:14:54.664Z,99.50
2023-01-24T22:17:23.524Z,98.10
2023-01-24T22:19:55.333Z,97.20
2023-01-24T22:22:48.339Z,83.70
2023-01-24T22:25:36.064Z,81.10
2023-01-24T22:28:03.093Z,74.10
2023-01-24T22:30:31.925Z,86.20
2023-01-24T22:33:00.469Z,73.70
2023-01-24T22:35:27.663Z,69.30
2023-01-24T22:37:57.019Z,81.20
2023-01-24T22:40:24.552Z,71.80
2023-01-24T22:42:55.352Z,73.70
2023-01-24T22:45:25.609Z,69.40
2023-01-24T22:47:52.333Z,71.80
2023-01-24T22:50:20.043Z,70.20
2023-01-24T22:52:47.756Z,74.30
2023-01-24T22:55:14.479Z,76.10
2023-01-24T22:57:41.010Z,76.90
2023-01-24T23:00:10.006Z,66.40
2023-01-24T23:02:36.529Z,67.20
2023-01-24T23:05:03.267Z,70.20
2023-01-24T23:07:29.793Z,61.20
2023-01-24T23:09:56.236Z,70.40
2023-01-24T23:12:41.734Z,67.70
2023-01-24T23:15:30.316Z,72.30
2023-01-24T23:17:56.872Z,72.30
2023-01-24T23:20:42.287Z,71.00
2023-01-24T23:23:08.963Z,72.70
2023-01-24T23:25:35.531Z,79.00
2023-01-24T23:28:01.916Z,72.50
2023-01-24T23:30:48.061Z,82.90
2023-01-24T23:33:32.931Z,75.20
2023-01-24T23:36:00.825Z,83.50
2023-01-24T23:38:28.607Z,84.80
2023-01-24T23:40:55.269Z,91.10
2023-01-24T23:43:21.773Z,94.30
2023-01-24T23:45:48.287Z,75.90
2023-01-24T23:48:14.873Z,80.80
2023-01-24T23:50:41.622Z,82.90
2023-01-24T23:53:08.161Z,74.90
2023-01-24T23:55:34.789Z,68.20
2023-01-24T23:58:02.207Z,78.90
